createdAt,value
2017-09-29T00:01:50.972Z,101885
2017-09-29T00:04:19.271Z,101875
2017-09-29T00:06:50.409Z,101880
2017-09-29T00:09:18.669Z,101879
2017-09-29T00:11:46.942Z,101886
2017-09-29T00:14:16.852Z,101879
2017-09-29T00:16:45.656Z,101871
2017-09-29T00:19:14.759Z,101884
2017-09-29T00:21:43.375Z,101883
2017-09-29T00:24:12.604Z,101879
2017-09-29T00:26:41.002Z,101884
2017-09-29T00:29:09.599Z,101877
2017-09-29T00:31:38.343Z,101882
2017-09-29T00:34:07.041Z,101879
2017-09-29T00:36:35.691Z,101880
2017-09-29T00:39:04.759Z,101882
2017-09-29T00:41:33.699Z,101876
2017-09-29T00:44:02.248Z,101875
2017-09-29T00:46:31.334Z,101871
2017-09-29T00:48:59.703Z,101884
2017-09-29T00:51:28.465Z,101879
2017-09-29T00:53:57.179Z,101876
2017-09-29T00:56:25.914Z,101876
2017-09-29T00:58:54.301Z,101869
2017-09-29T01:01:22.816Z,101875
2017-09-29T01:03:51.181Z,101873
2017-09-29T01:06:19.576Z,101862
2017-09-29T01:08:48.011Z,101870
2017-09-29T01:11:16.537Z,101860
2017-09-29T01:13:44.975Z,101869
2017-09-29T01:16:13.585Z,101864
2017-09-29T01:18:42.169Z,101865
2017-09-29T01:21:11.290Z,101860
2017-09-29T01:23:39.716Z,101869
2017-09-29T01:26:08.138Z,101863
2017-09-29T01:28:36.526Z,101862
2017-09-29T01:31:04.907Z,101864
2017-09-29T01:33:35.079Z,101857
2017-09-29T01:36:03.559Z,101865
2017-09-29T01:38:32.319Z,101865
2017-09-29T01:41:01.052Z,101858
2017-09-29T01:43:29.500Z,101857
2017-09-29T01:45:57.991Z,101857
2017-09-29T01:48:26.439Z,101848
2017-09-29T01:50:54.979Z,101848
2017-09-29T01:53:23.680Z,101848
2017-09-29T01:55:52.122Z,101875
2017-09-29T01:58:20.703Z,101839
2017-09-29T02:00:49.879Z,101846
2017-09-29T02:03:18.735Z,101842
2017-09-29T02:05:47.191Z,101838
2017-09-29T02:08:15.585Z,101836
2017-09-29T02:10:44.022Z,101859
2017-09-29T02:13:13.483Z,101827
2017-09-29T02:15:41.987Z,101826
2017-09-29T02:18:10.435Z,101831
2017-09-29T02:20:38.883Z,101827
2017-09-29T02:23:07.431Z,101823
2017-09-29T02:25:36.318Z,101833
2017-09-29T02:28:04.960Z,101827
2017-09-29T02:30:33.387Z,101820
2017-09-29T02:33:03.356Z,101823
2017-09-29T02:35:32.266Z,101821
2017-09-29T02:38:00.752Z,101833
2017-09-29T02:40:29.215Z,101817
2017-09-29T02:42:57.918Z,101817
2017-09-29T02:45:26.407Z,101823
2017-09-29T02:47:55.084Z,101814
2017-09-29T02:50:23.775Z,101817
2017-09-29T02:52:52.900Z,101819
2017-09-29T02:55:21.555Z,101816
2017-09-29T02:57:56.487Z,101811
2017-09-29T03:00:33.518Z,101808
2017-09-29T03:03:07.816Z,101815
2017-09-29T03:05:58.253Z,101809
2017-09-29T03:08:27.208Z,101817
2017-09-29T03:10:55.880Z,101825
2017-09-29T03:13:24.202Z,101818
2017-09-29T03:15:53.099Z,101825
2017-09-29T03:18:21.419Z,101819
2017-09-29T03:20:49.776Z,101810
2017-09-29T03:23:18.199Z,101815
2017-09-29T03:25:46.552Z,101809
2017-09-29T03:28:16.361Z,101814
2017-09-29T03:30:44.718Z,101809
2017-09-29T03:33:13.324Z,101807
2017-09-29T03:35:41.675Z,101804
2017-09-29T03:38:10.187Z,101804
2017-09-29T03:40:38.631Z,101795
2017-09-29T03:43:06.916Z,101800
2017-09-29T03:45:35.256Z,101797
2017-09-29T03:48:04.418Z,101791
2017-09-29T03:50:45.731Z,101790
2017-09-29T03:53:18.311Z,101788
2017-09-29T03:55:53.363Z,101784
2017-09-29T03:58:27.255Z,101799
2017-09-29T04:00:55.682Z,101787
2017-09-29T04:03:24.130Z,101774
2017-09-29T04:05:52.903Z,101778
2017-09-29T04:08:22.481Z,101782
2017-09-29T04:10:51.049Z,101779
2017-09-29T04:13:19.855Z,101782
2017-09-29T04:15:48.473Z,101783
2017-09-29T04:18:17.537Z,101782
2017-09-29T04:20:45.945Z,101761
2017-09-29T04:23:14.367Z,101787
2017-09-29T04:25:43.084Z,101789
2017-09-29T04:28:11.663Z,101791
2017-09-29T04:30:40.355Z,101791
2017-09-29T04:33:09.039Z,101798
2017-09-29T04:35:37.473Z,101794
2017-09-29T04:38:05.876Z,101806
2017-09-29T04:40:34.971Z,101798
2017-09-29T04:43:03.376Z,101789
2017-09-29T04:45:32.823Z,101795
2017-09-29T04:48:01.183Z,101799
2017-09-29T04:50:29.644Z,101787
2017-09-29T04:52:58.223Z,101787
2017-09-29T04:55:26.845Z,101791
2017-09-29T04:57:55.291Z,101787
2017-09-29T05:00:23.762Z,101781
2017-09-29T05:02:52.128Z,101785
2017-09-29T05:05:20.956Z,101787
2017-09-29T05:07:49.537Z,101788
2017-09-29T05:10:18.109Z,101792
2017-09-29T05:12:46.580Z,101787
2017-09-29T05:15:14.955Z,101795
2017-09-29T05:17:43.435Z,101788
2017-09-29T05:20:11.814Z,101792
2017-09-29T05:22:40.238Z,101793
2017-09-29T05:25:10.611Z,101790
2017-09-29T05:27:38.971Z,101795
2017-09-29T05:30:08.119Z,101792
2017-09-29T05:32:36.703Z,101798
2017-09-29T05:35:05.080Z,101796
2017-09-29T05:37:33.664Z,101798
2017-09-29T05:40:02.111Z,101800
2017-09-29T05:42:30.500Z,101793
2017-09-29T05:44:58.901Z,101797
2017-09-29T05:47:27.639Z,101801
2017-09-29T05:49:56.736Z,101802
2017-09-29T05:52:25.111Z,101800
2017-09-29T05:54:53.578Z,101801
2017-09-29T05:57:21.971Z,101798
2017-09-29T05:59:51.243Z,101799
2017-09-29T06:02:19.680Z,101805
2017-09-29T06:04:48.135Z,101804
2017-09-29T06:07:16.459Z,101801
2017-09-29T06:09:44.887Z,101809
2017-09-29T06:12:13.651Z,101799
2017-09-29T06:14:41.952Z,101812
2017-09-29T06:17:11.223Z,101810
2017-09-29T06:19:39.887Z,101794
2017-09-29T06:22:08.189Z,101805
2017-09-29T06:24:36.596Z,101798
2017-09-29T06:27:05.147Z,101803
2017-09-29T06:29:33.453Z,101799
2017-09-29T06:32:02.963Z,101796
2017-09-29T06:34:32.179Z,101798
2017-09-29T06:37:00.708Z,101803
2017-09-29T06:39:29.032Z,101803
2017-09-29T06:41:58.259Z,101809
2017-09-29T06:44:26.607Z,101807
2017-09-29T06:46:56.123Z,101813
2017-09-29T06:49:25.218Z,101821
2017-09-29T06:51:54.349Z,101818
2017-09-29T06:54:22.734Z,101820
2017-09-29T06:56:51.067Z,101822
2017-09-29T06:59:20.143Z,101821
2017-09-29T07:01:48.761Z,101818
2017-09-29T07:04:17.156Z,101818
2017-09-29T07:06:46.111Z,101819
2017-09-29T07:09:14.486Z,101823
2017-09-29T07:11:43.555Z,101806
2017-09-29T07:14:12.811Z,101803
2017-09-29T07:16:41.167Z,101803
2017-09-29T07:19:10.253Z,101807
2017-09-29T07:21:38.615Z,101800
2017-09-29T07:24:07.180Z,101810
2017-09-29T07:26:41.415Z,101806
2017-09-29T07:29:15.110Z,101807
2017-09-29T07:31:50.120Z,101817
2017-09-29T07:34:18.527Z,101804
2017-09-29T07:36:46.881Z,101810
2017-09-29T07:39:15.252Z,101810
2017-09-29T07:41:43.642Z,101806
2017-09-29T07:44:11.999Z,101809
2017-09-29T07:46:40.702Z,101811
2017-09-29T07:49:09.512Z,101816
2017-09-29T07:51:37.957Z,101818
2017-09-29T07:54:06.267Z,101815
2017-09-29T07:56:34.606Z,101850
2017-09-29T07:59:03.842Z,101818
2017-09-29T08:01:32.224Z,101843
2017-09-29T08:04:00.573Z,101814
2017-09-29T08:06:28.892Z,101809
2017-09-29T08:08:57.337Z,101811
2017-09-29T08:11:26.085Z,101807
2017-09-29T08:13:54.494Z,101807
2017-09-29T08:16:22.795Z,101804
2017-09-29T08:18:51.144Z,101807
2017-09-29T08:21:20.235Z,101805
2017-09-29T08:23:49.410Z,101807
2017-09-29T08:26:17.960Z,101811
2017-09-29T08:28:46.289Z,101807
2017-09-29T08:31:15.522Z,101800
2017-09-29T08:33:43.987Z,101805
2017-09-29T08:36:12.624Z,101799
2017-09-29T08:38:40.962Z,101808
2017-09-29T08:41:09.283Z,101798
2017-09-29T08:43:37.604Z,101796
2017-09-29T08:46:05.922Z,101805
2017-09-29T08:48:34.315Z,101799
2017-09-29T08:51:02.646Z,101799
2017-09-29T08:53:30.971Z,101795
2017-09-29T08:55:59.503Z,101787
2017-09-29T08:58:27.824Z,101794
2017-09-29T09:00:56.668Z,101787
2017-09-29T09:03:25.010Z,101794
2017-09-29T09:05:53.446Z,101779
2017-09-29T09:08:22.045Z,101783
2017-09-29T09:10:50.545Z,101784
2017-09-29T09:13:18.896Z,101789
2017-09-29T09:15:47.258Z,101778
2017-09-29T09:18:15.578Z,101775
2017-09-29T09:20:44.292Z,101783
2017-09-29T09:23:13.535Z,101780
2017-09-29T09:25:41.893Z,101778
2017-09-29T09:28:11.139Z,101774
2017-09-29T09:30:39.613Z,101777
2017-09-29T09:33:07.986Z,101774
2017-09-29T09:35:36.678Z,101764
2017-09-29T09:38:05.019Z,101771
2017-09-29T09:40:33.328Z,101771
2017-09-29T09:43:01.784Z,101762
2017-09-29T09:45:30.131Z,101760
2017-09-29T09:47:59.259Z,101768
2017-09-29T09:50:27.604Z,101774
2017-09-29T09:52:55.946Z,101773
2017-09-29T09:55:24.391Z,101769
2017-09-29T09:57:52.715Z,101763
2017-09-29T10:00:21.595Z,101754
2017-09-29T10:02:50.048Z,101755
2017-09-29T10:05:18.591Z,101760
2017-09-29T10:07:46.914Z,101763
2017-09-29T10:10:15.463Z,101759
2017-09-29T10:12:44.522Z,101754
2017-09-29T10:15:13.203Z,101754
2017-09-29T10:17:41.550Z,101752
2017-09-29T10:20:09.843Z,101741
2017-09-29T10:22:38.628Z,101744
2017-09-29T10:25:07.243Z,101732
2017-09-29T10:27:35.648Z,101732
2017-09-29T10:30:05.401Z,101739
2017-09-29T10:32:33.727Z,101739
2017-09-29T10:35:02.166Z,101729
2017-09-29T10:37:30.668Z,101734
2017-09-29T10:39:58.972Z,101725
2017-09-29T10:42:27.655Z,101721
2017-09-29T10:44:55.962Z,101724
2017-09-29T10:47:24.302Z,101720
2017-09-29T10:49:52.737Z,101718
2017-09-29T10:52:21.062Z,101708
2017-09-29T10:54:49.343Z,101706
2017-09-29T10:57:17.696Z,101707
2017-09-29T10:59:46.307Z,101704
2017-09-29T11:02:14.599Z,101703
2017-09-29T11:04:42.945Z,101693
2017-09-29T11:07:11.543Z,101688
2017-09-29T11:09:39.868Z,101693
2017-09-29T11:12:08.191Z,101693
2017-09-29T11:14:36.524Z,101693
2017-09-29T11:17:09.733Z,101692
2017-09-29T11:19:42.656Z,101684
2017-09-29T11:22:11.169Z,101682
2017-09-29T11:24:40.524Z,101677
2017-09-29T11:27:09.411Z,101678
2017-09-29T11:29:37.679Z,101674
2017-09-29T11:32:06.023Z,101680
2017-09-29T11:34:35.210Z,101666
2017-09-29T11:37:03.523Z,101669
2017-09-29T11:39:31.844Z,101660
2017-09-29T11:42:00.347Z,101660
2017-09-29T11:44:29.449Z,101659
2017-09-29T11:46:58.702Z,101654
2017-09-29T11:49:27.767Z,101658
2017-09-29T11:51:56.067Z,101650
2017-09-29T11:54:24.372Z,101651
2017-09-29T11:56:52.711Z,101643
2017-09-29T11:59:21.096Z,101635
2017-09-29T12:01:49.461Z,101645
2017-09-29T12:04:17.865Z,101641
2017-09-29T12:06:46.199Z,101648
2017-09-29T12:09:15.302Z,101642
2017-09-29T12:11:44.369Z,101636
2017-09-29T12:14:13.438Z,101647
2017-09-29T12:16:41.764Z,101638
2017-09-29T12:19:10.792Z,101637
2017-09-29T12:21:39.096Z,101632
2017-09-29T12:24:08.535Z,101631
2017-09-29T12:26:36.890Z,101624
2017-09-29T12:29:05.430Z,101629
2017-09-29T12:31:33.998Z,101636
2017-09-29T12:34:02.291Z,101623
2017-09-29T12:36:30.631Z,101627
2017-09-29T12:38:59.738Z,101624
2017-09-29T12:41:28.983Z,101617
2017-09-29T12:43:57.447Z,101625
2017-09-29T12:46:25.758Z,101620
2017-09-29T12:48:54.068Z,101621
2017-09-29T12:51:23.702Z,101623
2017-09-29T12:53:52.037Z,101612
2017-09-29T12:56:20.334Z,101605
2017-09-29T12:58:49.371Z,101603
2017-09-29T13:01:18.135Z,101615
2017-09-29T13:03:46.474Z,101604
2017-09-29T13:06:14.997Z,101605
2017-09-29T13:08:43.271Z,101601
2017-09-29T13:11:11.955Z,101605
2017-09-29T13:13:40.251Z,101595
2017-09-29T13:16:08.857Z,101602
2017-09-29T13:18:37.199Z,101596
2017-09-29T13:21:06.228Z,101596
2017-09-29T13:23:34.747Z,101592
2017-09-29T13:26:03.043Z,101590
2017-09-29T13:28:31.307Z,101592
2017-09-29T13:31:00.360Z,101585
2017-09-29T13:33:28.668Z,101589
2017-09-29T13:35:57.204Z,101599
2017-09-29T13:38:25.571Z,101602
2017-09-29T13:40:55.247Z,101599
2017-09-29T13:43:24.294Z,101601
2017-09-29T13:45:52.987Z,101587
2017-09-29T13:48:21.310Z,101590
2017-09-29T13:50:50.457Z,101590
2017-09-29T13:53:18.821Z,101587
2017-09-29T13:55:47.162Z,101587
2017-09-29T13:58:16.250Z,101587
2017-09-29T14:00:45.439Z,101592
2017-09-29T14:03:13.985Z,101584
2017-09-29T14:05:42.314Z,101585
2017-09-29T14:08:11.619Z,101586
2017-09-29T14:10:41.082Z,101592
2017-09-29T14:13:09.663Z,101587
2017-09-29T14:15:40.213Z,101580
2017-09-29T14:18:09.186Z,101583
2017-09-29T14:20:38.284Z,101583
2017-09-29T14:23:06.970Z,101577
2017-09-29T14:25:35.659Z,101583
2017-09-29T14:28:04.342Z,101580
2017-09-29T14:30:32.824Z,101578
2017-09-29T14:33:01.307Z,101576
2017-09-29T14:35:29.598Z,101582
2017-09-29T14:37:58.066Z,101581
2017-09-29T14:40:26.955Z,101583
2017-09-29T14:42:55.643Z,101582
2017-09-29T14:45:23.971Z,101588
2017-09-29T14:47:53.223Z,101573
2017-09-29T14:50:21.499Z,101583
2017-09-29T14:52:49.792Z,101580
2017-09-29T14:55:18.222Z,101579
2017-09-29T14:57:46.531Z,101588
2017-09-29T15:00:14.963Z,101577
2017-09-29T15:02:43.546Z,101579
2017-09-29T15:05:12.587Z,101582
2017-09-29T15:07:40.910Z,101565
2017-09-29T15:10:09.359Z,101571
2017-09-29T15:12:37.619Z,101565
2017-09-29T15:15:05.953Z,101571
2017-09-29T15:17:35.022Z,101565
2017-09-29T15:20:03.706Z,101562
2017-09-29T15:22:32.029Z,101566
2017-09-29T15:25:00.348Z,101566
2017-09-29T15:27:28.923Z,101561
2017-09-29T15:29:57.372Z,101572
2017-09-29T15:32:25.670Z,101562
2017-09-29T15:34:54.033Z,101568
2017-09-29T15:37:22.614Z,101573
2017-09-29T15:39:51.244Z,101567
2017-09-29T15:42:19.612Z,101565
2017-09-29T15:44:47.974Z,101569
2017-09-29T15:47:16.413Z,101565
2017-09-29T15:49:45.655Z,101570
2017-09-29T15:52:14.155Z,101570
2017-09-29T15:54:42.503Z,101565
2017-09-29T15:57:10.861Z,101562
2017-09-29T15:59:39.791Z,101557
2017-09-29T16:02:08.143Z,101566
2017-09-29T16:04:37.210Z,101563
2017-09-29T16:07:05.579Z,101570
2017-09-29T16:09:33.910Z,101572
2017-09-29T16:12:02.233Z,101569
2017-09-29T16:14:30.898Z,101572
2017-09-29T16:16:59.392Z,101575
2017-09-29T16:19:27.711Z,101566
2017-09-29T16:21:57.202Z,101572
2017-09-29T16:24:25.523Z,101570
2017-09-29T16:26:53.854Z,101571
2017-09-29T16:29:22.955Z,101560
2017-09-29T16:31:51.275Z,101559
2017-09-29T16:34:19.651Z,101567
2017-09-29T16:36:47.979Z,101564
2017-09-29T16:39:16.283Z,101566
2017-09-29T16:41:44.642Z,101564
2017-09-29T16:44:14.317Z,101554
2017-09-29T16:46:42.629Z,101561
2017-09-29T16:49:11.081Z,101565
2017-09-29T16:51:39.765Z,101566
2017-09-29T16:54:08.257Z,101571
2017-09-29T16:56:37.187Z,101565
2017-09-29T16:59:07.005Z,101580
2017-09-29T17:01:35.351Z,101571
2017-09-29T17:04:04.022Z,101570
2017-09-29T17:06:32.870Z,101566
2017-09-29T17:09:01.199Z,101568
2017-09-29T17:11:29.494Z,101567
2017-09-29T17:13:57.819Z,101575
2017-09-29T17:16:26.136Z,101570
2017-09-29T17:18:54.484Z,101571
2017-09-29T17:21:22.807Z,101559
2017-09-29T17:23:51.134Z,101562
2017-09-29T17:26:19.533Z,101559
2017-09-29T17:28:48.303Z,101571
2017-09-29T17:31:16.668Z,101565
2017-09-29T17:33:45.008Z,101569
2017-09-29T17:36:13.458Z,101562
2017-09-29T17:38:41.850Z,101554
2017-09-29T17:41:10.391Z,101554
2017-09-29T17:43:38.736Z,101550
2017-09-29T17:46:07.224Z,101547
2017-09-29T17:48:35.620Z,101546
2017-09-29T17:51:03.971Z,101544
2017-09-29T17:53:33.511Z,101538
2017-09-29T17:56:01.928Z,101538
2017-09-29T17:58:30.261Z,101542
2017-09-29T18:00:58.604Z,101537
2017-09-29T18:03:27.167Z,101551
2017-09-29T18:05:55.516Z,101526
2017-09-29T18:08:24.129Z,101520
2017-09-29T18:10:53.327Z,101524
2017-09-29T18:13:22.935Z,101508
2017-09-29T18:15:52.440Z,101511
2017-09-29T18:18:21.746Z,101519
2017-09-29T18:20:51.043Z,101516
2017-09-29T18:23:20.343Z,101516
2017-09-29T18:25:49.643Z,101514
2017-09-29T18:28:18.944Z,101516
2017-09-29T18:30:48.374Z,101502
2017-09-29T18:33:17.340Z,101503
2017-09-29T18:35:46.470Z,101514
2017-09-29T18:38:15.740Z,101514
2017-09-29T18:40:44.646Z,101508
2017-09-29T18:43:14.388Z,101505
2017-09-29T18:45:43.539Z,101494
2017-09-29T18:48:13.456Z,101495
2017-09-29T18:50:42.559Z,101491
2017-09-29T18:53:13.490Z,101497
2017-09-29T18:55:42.382Z,101483
2017-09-29T18:58:11.273Z,101482
2017-09-29T19:00:39.589Z,101487
2017-09-29T19:03:08.151Z,101488
2017-09-29T19:05:36.698Z,101487
2017-09-29T19:08:05.003Z,101478
2017-09-29T19:10:33.328Z,101487
2017-09-29T19:13:02.390Z,101485
2017-09-29T19:15:30.822Z,101486
2017-09-29T19:17:59.162Z,101485
2017-09-29T19:20:27.823Z,101477
2017-09-29T19:22:56.140Z,101473
2017-09-29T19:25:25.183Z,101479
2017-09-29T19:27:53.499Z,101468
2017-09-29T19:30:21.944Z,101472
2017-09-29T19:32:50.253Z,101475
2017-09-29T19:35:18.728Z,101486
2017-09-29T19:37:46.994Z,101488
2017-09-29T19:40:15.667Z,101477
2017-09-29T19:42:44.132Z,101477
2017-09-29T19:45:12.515Z,101483
2017-09-29T19:47:40.808Z,101477
2017-09-29T19:50:09.107Z,101486
2017-09-29T19:52:37.432Z,101485
2017-09-29T19:55:05.716Z,101483
2017-09-29T19:57:34.132Z,101470
2017-09-29T20:00:02.435Z,101480
2017-09-29T20:02:32.229Z,101479
2017-09-29T20:05:00.509Z,101473
2017-09-29T20:07:28.803Z,101482
2017-09-29T20:09:57.822Z,101484
2017-09-29T20:12:26.128Z,101482
2017-09-29T20:14:54.422Z,101493
2017-09-29T20:17:37.610Z,101485
2017-09-29T20:20:06.131Z,101492
2017-09-29T20:22:34.434Z,101477
2017-09-29T20:25:03.052Z,101478
2017-09-29T20:27:31.384Z,101472
2017-09-29T20:29:59.722Z,101479
2017-09-29T20:32:28.040Z,101474
2017-09-29T20:34:56.597Z,101475
2017-09-29T20:37:24.937Z,101507
2017-09-29T20:39:53.493Z,101468
2017-09-29T20:42:21.837Z,101471
2017-09-29T20:44:50.283Z,101479
2017-09-29T20:47:18.605Z,101468
2017-09-29T20:49:47.444Z,101458
2017-09-29T20:52:15.909Z,101474
2017-09-29T20:54:44.407Z,101469
2017-09-29T20:57:12.932Z,101471
2017-09-29T20:59:41.281Z,101476
2017-09-29T21:02:09.828Z,101477
2017-09-29T21:04:38.377Z,101475
2017-09-29T21:07:06.721Z,101478
2017-09-29T21:09:35.341Z,101472
2017-09-29T21:12:03.995Z,101467
2017-09-29T21:14:32.620Z,101470
2017-09-29T21:17:00.944Z,101464
2017-09-29T21:19:29.459Z,101459
2017-09-29T21:21:57.783Z,101453
2017-09-29T21:24:26.132Z,101453
2017-09-29T21:26:54.428Z,101452
2017-09-29T21:29:23.099Z,101454
2017-09-29T21:31:51.424Z,101452
2017-09-29T21:34:20.441Z,101450
2017-09-29T21:36:48.743Z,101452
2017-09-29T21:39:17.192Z,101451
2017-09-29T21:41:45.750Z,101452
2017-09-29T21:44:14.803Z,101435
2017-09-29T21:46:43.385Z,101433
2017-09-29T21:49:11.722Z,101439
2017-09-29T21:51:40.907Z,101432
2017-09-29T21:54:09.206Z,101422
2017-09-29T21:56:37.799Z,101412
2017-09-29T21:59:06.383Z,101410
2017-09-29T22:01:34.675Z,101415
2017-09-29T22:04:03.215Z,101418
2017-09-29T22:06:32.334Z,101421
2017-09-29T22:09:00.655Z,101431
2017-09-29T22:11:28.975Z,101417
2017-09-29T22:13:57.742Z,101421
2017-09-29T22:16:26.042Z,101419
2017-09-29T22:18:55.091Z,101413
2017-09-29T22:21:23.415Z,101408
2017-09-29T22:23:52.462Z,101402
2017-09-29T22:26:20.747Z,101410
2017-09-29T22:28:49.092Z,101404
2017-09-29T22:34:01.114Z,101394
2017-09-29T22:36:30.383Z,101384
2017-09-29T22:38:58.689Z,101387
2017-09-29T22:41:27.011Z,101380
2017-09-29T22:43:55.361Z,101386
2017-09-29T22:46:23.896Z,101388
2017-09-29T22:48:53.014Z,101391
2017-09-29T22:51:21.419Z,101387
2017-09-29T22:53:49.864Z,101384
2017-09-29T22:56:18.791Z,101382
2017-09-29T22:58:47.483Z,101382
2017-09-29T23:01:15.826Z,101377
2017-09-29T23:03:44.230Z,101379
2017-09-29T23:06:12.957Z,101385
2017-09-29T23:08:41.299Z,101381
2017-09-29T23:11:09.654Z,101384
2017-09-29T23:13:38.008Z,101373
2017-09-29T23:16:07.225Z,101368
2017-09-29T23:18:35.822Z,101366
2017-09-29T23:21:04.470Z,101373
2017-09-29T23:23:32.794Z,101368
2017-09-29T23:26:01.160Z,101371
2017-09-29T23:28:29.508Z,101359
2017-09-29T23:30:58.735Z,101359
2017-09-29T23:33:27.081Z,101347
2017-09-29T23:35:55.387Z,101347
2017-09-29T23:38:24.146Z,101358
2017-09-29T23:40:52.479Z,101352
2017-09-29T23:43:21.217Z,101357
2017-09-29T23:45:50.406Z,101346
2017-09-29T23:48:18.738Z,101341
2017-09-29T23:50:47.049Z,101341
2017-09-29T23:53:15.487Z,101339
2017-09-29T23:55:44.195Z,101335
2017-09-29T23:58:12.527Z,101332
